sensor_id;sensor_type;location;lat;lon;timestamp;temperature;humidity
69895;DHT22;57172;52.034;5.090;2023-12-20T00:02:16;7.10;97.30
69895;DHT22;57172;52.034;5.090;2023-12-20T00:04:43;7.10;97.30
69895;DHT22;57172;52.034;5.090;2023-12-20T00:07:10;7.00;97.10
69895;DHT22;57172;52.034;5.090;2023-12-20T00:09:37;7.00;97.10
69895;DHT22;57172;52.034;5.090;2023-12-20T00:12:05;7.00;97.10
69895;DHT22;57172;52.034;5.090;2023-12-20T00:14:32;7.00;97.00
69895;DHT22;57172;52.034;5.090;2023-12-20T00:16:59;7.00;96.90
69895;DHT22;57172;52.034;5.090;2023-12-20T00:19:26;6.90;96.80
69895;DHT22;57172;52.034;5.090;2023-12-20T00:21:53;6.90;96.70
69895;DHT22;57172;52.034;5.090;2023-12-20T00:24:20;6.90;96.70
69895;DHT22;57172;52.034;5.090;2023-12-20T00:26:47;6.90;96.70
69895;DHT22;57172;52.034;5.090;2023-12-20T00:29:14;6.90;96.90
69895;DHT22;57172;52.034;5.090;2023-12-20T00:31:41;6.90;96.90
69895;DHT22;57172;52.034;5.090;2023-12-20T00:34:08;6.90;96.90
69895;DHT22;57172;52.034;5.090;2023-12-20T00:36:35;6.90;97.00
69895;DHT22;57172;52.034;5.090;2023-12-20T00:39:02;6.90;97.10
69895;DHT22;57172;52.034;5.090;2023-12-20T00:41:30;6.90;97.30
69895;DHT22;57172;52.034;5.090;2023-12-20T00:43:56;6.90;97.20
69895;DHT22;57172;52.034;5.090;2023-12-20T00:46:23;6.90;97.20
69895;DHT22;57172;52.034;5.090;2023-12-20T00:48:50;7.00;97.00
69895;DHT22;57172;52.034;5.090;2023-12-20T00:51:17;7.00;97.10
69895;DHT22;57172;52.034;5.090;2023-12-20T00:53:44;7.00;97.00
69895;DHT22;57172;52.034;5.090;2023-12-20T00:56:11;7.00;96.80
69895;DHT22;57172;52.034;5.090;2023-12-20T00:58:38;7.00;96.70
69895;DHT22;57172;52.034;5.090;2023-12-20T01:01:05;7.00;96.70
69895;DHT22;57172;52.034;5.090;2023-12-20T01:03:32;7.00;96.60
69895;DHT22;57172;52.034;5.090;2023-12-20T01:05:59;7.00;96.50
69895;DHT22;57172;52.034;5.090;2023-12-20T01:08:25;6.90;96.40
69895;DHT22;57172;52.034;5.090;2023-12-20T01:10:52;6.90;96.40
69895;DHT22;57172;52.034;5.090;2023-12-20T01:13:19;6.90;96.30
69895;DHT22;57172;52.034;5.090;2023-12-20T01:15:46;6.90;96.20
69895;DHT22;57172;52.034;5.090;2023-12-20T01:18:14;6.90;96.30
69895;DHT22;57172;52.034;5.090;2023-12-20T01:20:41;6.90;96.30
69895;DHT22;57172;52.034;5.090;2023-12-20T01:23:09;6.90;96.40
69895;DHT22;57172;52.034;5.090;2023-12-20T01:25:36;6.90;96.50
69895;DHT22;57172;52.034;5.090;2023-12-20T01:28:03;6.90;96.60
69895;DHT22;57172;52.034;5.090;2023-12-20T01:30:30;6.90;96.80
69895;DHT22;57172;52.034;5.090;2023-12-20T01:33:00;6.90;97.00
69895;DHT22;57172;52.034;5.090;2023-12-20T01:35:27;7.00;97.00
69895;DHT22;57172;52.034;5.090;2023-12-20T01:37:54;7.00;97.00
69895;DHT22;57172;52.034;5.090;2023-12-20T01:40:23;7.00;97.00
69895;DHT22;57172;52.034;5.090;2023-12-20T01:43:07;7.10;97.00
69895;DHT22;57172;52.034;5.090;2023-12-20T01:45:39;7.10;96.90
69895;DHT22;57172;52.034;5.090;2023-12-20T01:48:07;7.10;96.80
69895;DHT22;57172;52.034;5.090;2023-12-20T01:50:36;7.10;96.70
69895;DHT22;57172;52.034;5.090;2023-12-20T01:53:04;7.10;96.60
69895;DHT22;57172;52.034;5.090;2023-12-20T01:55:35;7.10;96.50
69895;DHT22;57172;52.034;5.090;2023-12-20T01:58:03;7.10;96.40
69895;DHT22;57172;52.034;5.090;2023-12-20T02:00:31;7.10;96.30
69895;DHT22;57172;52.034;5.090;2023-12-20T02:03:01;7.10;96.20
69895;DHT22;57172;52.034;5.090;2023-12-20T02:05:30;7.10;96.30
69895;DHT22;57172;52.034;5.090;2023-12-20T02:07:57;7.10;96.60
69895;DHT22;57172;52.034;5.090;2023-12-20T02:10:25;7.10;96.50
69895;DHT22;57172;52.034;5.090;2023-12-20T02:12:52;7.10;96.70
69895;DHT22;57172;52.034;5.090;2023-12-20T02:15:19;7.20;96.80
69895;DHT22;57172;52.034;5.090;2023-12-20T02:17:47;7.20;96.90
69895;DHT22;57172;52.034;5.090;2023-12-20T02:20:15;7.20;96.70
69895;DHT22;57172;52.034;5.090;2023-12-20T02:22:42;7.30;96.60
69895;DHT22;57172;52.034;5.090;2023-12-20T02:25:09;7.30;96.70
69895;DHT22;57172;52.034;5.090;2023-12-20T02:27:36;7.30;96.80
69895;DHT22;57172;52.034;5.090;2023-12-20T02:30:03;7.30;96.60
69895;DHT22;57172;52.034;5.090;2023-12-20T02:32:30;7.40;96.50
69895;DHT22;57172;52.034;5.090;2023-12-20T02:34:58;7.40;96.30
69895;DHT22;57172;52.034;5.090;2023-12-20T02:37:25;7.40;96.10
69895;DHT22;57172;52.034;5.090;2023-12-20T02:39:52;7.40;95.90
69895;DHT22;57172;52.034;5.090;2023-12-20T02:42:19;7.40;95.70
69895;DHT22;57172;52.034;5.090;2023-12-20T02:44:45;7.40;95.70
69895;DHT22;57172;52.034;5.090;2023-12-20T02:47:12;7.40;95.60
69895;DHT22;57172;52.034;5.090;2023-12-20T02:49:39;7.40;95.90
69895;DHT22;57172;52.034;5.090;2023-12-20T02:52:06;7.40;96.00
69895;DHT22;57172;52.034;5.090;2023-12-20T02:54:33;7.40;96.20
69895;DHT22;57172;52.034;5.090;2023-12-20T02:57:00;7.50;96.30
69895;DHT22;57172;52.034;5.090;2023-12-20T02:59:27;7.50;96.30
69895;DHT22;57172;52.034;5.090;2023-12-20T03:01:54;7.50;96.30
69895;DHT22;57172;52.034;5.090;2023-12-20T03:04:22;7.60;96.40
69895;DHT22;57172;52.034;5.090;2023-12-20T03:06:49;7.60;96.50
69895;DHT22;57172;52.034;5.090;2023-12-20T03:09:16;7.70;96.30
69895;DHT22;57172;52.034;5.090;2023-12-20T03:11:43;7.80;96.10
69895;DHT22;57172;52.034;5.090;2023-12-20T03:14:10;7.80;95.70
69895;DHT22;57172;52.034;5.090;2023-12-20T03:16:37;7.80;95.70
69895;DHT22;57172;52.034;5.090;2023-12-20T03:19:04;7.80;95.70
69895;DHT22;57172;52.034;5.090;2023-12-20T03:21:31;7.80;95.60
69895;DHT22;57172;52.034;5.090;2023-12-20T03:23:58;7.90;95.50
69895;DHT22;57172;52.034;5.090;2023-12-20T03:26:24;7.90;95.60
69895;DHT22;57172;52.034;5.090;2023-12-20T03:28:51;7.90;95.50
69895;DHT22;57172;52.034;5.090;2023-12-20T03:31:18;7.90;95.50
69895;DHT22;57172;52.034;5.090;2023-12-20T03:33:46;7.90;95.30
69895;DHT22;57172;52.034;5.090;2023-12-20T03:36:13;7.90;95.20
69895;DHT22;57172;52.034;5.090;2023-12-20T03:38:41;7.90;95.00
69895;DHT22;57172;52.034;5.090;2023-12-20T03:41:08;7.90;95.10
69895;DHT22;57172;52.034;5.090;2023-12-20T03:43:34;7.90;95.10
69895;DHT22;57172;52.034;5.090;2023-12-20T03:46:02;7.90;95.10
69895;DHT22;57172;52.034;5.090;2023-12-20T03:48:31;7.90;94.60
69895;DHT22;57172;52.034;5.090;2023-12-20T03:50:58;7.90;94.30
69895;DHT22;57172;52.034;5.090;2023-12-20T03:53:24;7.90;94.20
69895;DHT22;57172;52.034;5.090;2023-12-20T03:55:51;7.90;94.20
69895;DHT22;57172;52.034;5.090;2023-12-20T03:58:18;7.90;93.70
69895;DHT22;57172;52.034;5.090;2023-12-20T04:00:45;7.80;93.60
69895;DHT22;57172;52.034;5.090;2023-12-20T04:03:13;7.80;93.60
69895;DHT22;57172;52.034;5.090;2023-12-20T04:05:40;7.80;93.70
69895;DHT22;57172;52.034;5.090;2023-12-20T04:08:08;7.80;93.90
69895;DHT22;57172;52.034;5.090;2023-12-20T04:10:35;7.70;94.00
69895;DHT22;57172;52.034;5.090;2023-12-20T04:13:04;7.70;94.10
69895;DHT22;57172;52.034;5.090;2023-12-20T04:15:31;7.70;94.10
69895;DHT22;57172;52.034;5.090;2023-12-20T04:17:58;7.80;94.30
69895;DHT22;57172;52.034;5.090;2023-12-20T04:20:25;7.80;94.30
69895;DHT22;57172;52.034;5.090;2023-12-20T04:22:52;7.80;94.10
69895;DHT22;57172;52.034;5.090;2023-12-20T04:25:19;7.80;94.10
69895;DHT22;57172;52.034;5.090;2023-12-20T04:27:47;7.80;94.10
69895;DHT22;57172;52.034;5.090;2023-12-20T04:30:14;7.90;94.30
69895;DHT22;57172;52.034;5.090;2023-12-20T04:32:41;7.90;94.10
69895;DHT22;57172;52.034;5.090;2023-12-20T04:35:08;7.90;93.90
69895;DHT22;57172;52.034;5.090;2023-12-20T04:37:35;7.90;93.50
69895;DHT22;57172;52.034;5.090;2023-12-20T04:40:02;7.90;93.50
69895;DHT22;57172;52.034;5.090;2023-12-20T04:42:29;8.00;93.30
69895;DHT22;57172;52.034;5.090;2023-12-20T04:44:56;8.00;93.20
69895;DHT22;57172;52.034;5.090;2023-12-20T04:47:23;8.00;93.10
69895;DHT22;57172;52.034;5.090;2023-12-20T04:49:50;8.00;93.00
69895;DHT22;57172;52.034;5.090;2023-12-20T04:52:17;8.00;92.80
69895;DHT22;57172;52.034;5.090;2023-12-20T04:54:44;8.00;92.90
69895;DHT22;57172;52.034;5.090;2023-12-20T04:57:11;8.00;92.60
69895;DHT22;57172;52.034;5.090;2023-12-20T04:59:38;8.00;92.50
69895;DHT22;57172;52.034;5.090;2023-12-20T05:02:05;8.00;92.50
69895;DHT22;57172;52.034;5.090;2023-12-20T05:04:32;8.00;92.60
69895;DHT22;57172;52.034;5.090;2023-12-20T05:06:59;8.00;92.30
69895;DHT22;57172;52.034;5.090;2023-12-20T05:09:26;7.90;92.30
69895;DHT22;57172;52.034;5.090;2023-12-20T05:11:53;8.00;92.60
69895;DHT22;57172;52.034;5.090;2023-12-20T05:14:20;8.00;92.80
69895;DHT22;57172;52.034;5.090;2023-12-20T05:16:47;8.00;92.90
69895;DHT22;57172;52.034;5.090;2023-12-20T05:19:13;8.00;93.00
69895;DHT22;57172;52.034;5.090;2023-12-20T05:21:41;8.00;92.90
69895;DHT22;57172;52.034;5.090;2023-12-20T05:24:08;8.00;93.00
69895;DHT22;57172;52.034;5.090;2023-12-20T05:26:35;8.00;92.60
69895;DHT22;57172;52.034;5.090;2023-12-20T05:29:02;8.00;92.50
69895;DHT22;57172;52.034;5.090;2023-12-20T05:31:29;8.00;92.70
69895;DHT22;57172;52.034;5.090;2023-12-20T05:33:56;8.00;92.50
69895;DHT22;57172;52.034;5.090;2023-12-20T05:36:23;8.00;92.70
69895;DHT22;57172;52.034;5.090;2023-12-20T05:38:50;8.00;92.60
69895;DHT22;57172;52.034;5.090;2023-12-20T05:41:17;8.00;92.90
69895;DHT22;57172;52.034;5.090;2023-12-20T05:43:44;8.00;92.50
69895;DHT22;57172;52.034;5.090;2023-12-20T05:46:11;8.00;92.40
69895;DHT22;57172;52.034;5.090;2023-12-20T05:48:39;8.00;92.10
69895;DHT22;57172;52.034;5.090;2023-12-20T05:51:06;8.10;92.00
69895;DHT22;57172;52.034;5.090;2023-12-20T05:53:33;8.10;92.00
69895;DHT22;57172;52.034;5.090;2023-12-20T05:56:00;8.10;92.20
69895;DHT22;57172;52.034;5.090;2023-12-20T05:58:27;8.10;92.20
69895;DHT22;57172;52.034;5.090;2023-12-20T06:00:54;8.10;92.60
69895;DHT22;57172;52.034;5.090;2023-12-20T06:03:21;8.10;92.50
69895;DHT22;57172;52.034;5.090;2023-12-20T06:05:48;8.10;92.10
69895;DHT22;57172;52.034;5.090;2023-12-20T06:08:15;8.10;92.30
69895;DHT22;57172;52.034;5.090;2023-12-20T06:10:42;8.10;92.20
69895;DHT22;57172;52.034;5.090;2023-12-20T06:13:09;8.20;92.20
69895;DHT22;57172;52.034;5.090;2023-12-20T06:15:35;8.10;92.10
69895;DHT22;57172;52.034;5.090;2023-12-20T06:18:02;8.10;92.30
69895;DHT22;57172;52.034;5.090;2023-12-20T06:20:30;8.10;92.20
69895;DHT22;57172;52.034;5.090;2023-12-20T06:22:56;8.20;92.20
69895;DHT22;57172;52.034;5.090;2023-12-20T06:25:23;8.20;92.20
69895;DHT22;57172;52.034;5.090;2023-12-20T06:27:50;8.20;92.10
69895;DHT22;57172;52.034;5.090;2023-12-20T06:30:17;8.20;92.10
69895;DHT22;57172;52.034;5.090;2023-12-20T06:32:45;8.20;91.80
69895;DHT22;57172;52.034;5.090;2023-12-20T06:35:13;8.20;92.00
69895;DHT22;57172;52.034;5.090;2023-12-20T06:37:40;8.20;91.30
69895;DHT22;57172;52.034;5.090;2023-12-20T06:40:10;8.20;91.60
69895;DHT22;57172;52.034;5.090;2023-12-20T06:42:44;8.20;91.80
69895;DHT22;57172;52.034;5.090;2023-12-20T06:45:24;8.20;91.40
69895;DHT22;57172;52.034;5.090;2023-12-20T06:47:51;8.20;91.70
69895;DHT22;57172;52.034;5.090;2023-12-20T06:50:18;8.20;91.60
69895;DHT22;57172;52.034;5.090;2023-12-20T06:52:45;8.20;91.70
69895;DHT22;57172;52.034;5.090;2023-12-20T06:55:12;8.20;91.50
69895;DHT22;57172;52.034;5.090;2023-12-20T06:57:39;8.20;91.60
69895;DHT22;57172;52.034;5.090;2023-12-20T07:00:07;8.30;91.90
69895;DHT22;57172;52.034;5.090;2023-12-20T07:02:35;8.30;91.90
69895;DHT22;57172;52.034;5.090;2023-12-20T07:05:02;8.30;91.40
69895;DHT22;57172;52.034;5.090;2023-12-20T07:07:29;8.30;91.50
69895;DHT22;57172;52.034;5.090;2023-12-20T07:09:56;8.30;91.70
69895;DHT22;57172;52.034;5.090;2023-12-20T07:12:23;8.30;91.30
69895;DHT22;57172;52.034;5.090;2023-12-20T07:14:50;8.30;91.50
69895;DHT22;57172;52.034;5.090;2023-12-20T07:17:17;8.30;91.70
69895;DHT22;57172;52.034;5.090;2023-12-20T07:19:44;8.30;91.90
69895;DHT22;57172;52.034;5.090;2023-12-20T07:22:12;8.40;91.90
69895;DHT22;57172;52.034;5.090;2023-12-20T07:24:39;8.40;92.00
69895;DHT22;57172;52.034;5.090;2023-12-20T07:27:06;8.40;91.90
69895;DHT22;57172;52.034;5.090;2023-12-20T07:29:33;8.40;91.90
69895;DHT22;57172;52.034;5.090;2023-12-20T07:32:00;8.40;91.70
69895;DHT22;57172;52.034;5.090;2023-12-20T07:34:27;8.40;91.80
69895;DHT22;57172;52.034;5.090;2023-12-20T07:36:54;8.40;91.80
69895;DHT22;57172;52.034;5.090;2023-12-20T07:39:21;8.50;92.00
69895;DHT22;57172;52.034;5.090;2023-12-20T07:41:48;8.50;91.70
69895;DHT22;57172;52.034;5.090;2023-12-20T07:44:15;8.40;91.70
69895;DHT22;57172;52.034;5.090;2023-12-20T07:46:42;8.50;91.80
69895;DHT22;57172;52.034;5.090;2023-12-20T07:49:09;8.40;91.80
69895;DHT22;57172;52.034;5.090;2023-12-20T07:51:38;8.50;91.50
69895;DHT22;57172;52.034;5.090;2023-12-20T07:54:05;8.50;91.60
69895;DHT22;57172;52.034;5.090;2023-12-20T07:56:32;8.50;91.50
69895;DHT22;57172;52.034;5.090;2023-12-20T07:58:59;8.50;91.20
69895;DHT22;57172;52.034;5.090;2023-12-20T08:01:26;8.50;91.10
69895;DHT22;57172;52.034;5.090;2023-12-20T08:03:53;8.50;91.20
69895;DHT22;57172;52.034;5.090;2023-12-20T08:06:21;8.50;91.30
69895;DHT22;57172;52.034;5.090;2023-12-20T08:08:48;8.50;90.90
69895;DHT22;57172;52.034;5.090;2023-12-20T08:11:27;8.50;90.80
69895;DHT22;57172;52.034;5.090;2023-12-20T08:13:53;8.50;90.60
69895;DHT22;57172;52.034;5.090;2023-12-20T08:16:20;8.50;90.40
69895;DHT22;57172;52.034;5.090;2023-12-20T08:18:47;8.50;90.40
69895;DHT22;57172;52.034;5.090;2023-12-20T08:21:14;8.50;90.40
69895;DHT22;57172;52.034;5.090;2023-12-20T08:23:41;8.50;90.70
69895;DHT22;57172;52.034;5.090;2023-12-20T08:26:08;8.60;90.80
69895;DHT22;57172;52.034;5.090;2023-12-20T08:28:36;8.60;90.90
69895;DHT22;57172;52.034;5.090;2023-12-20T08:31:03;8.60;90.90
69895;DHT22;57172;52.034;5.090;2023-12-20T08:33:31;8.60;91.00
69895;DHT22;57172;52.034;5.090;2023-12-20T08:35:58;8.60;91.30
69895;DHT22;57172;52.034;5.090;2023-12-20T08:38:25;8.60;91.10
69895;DHT22;57172;52.034;5.090;2023-12-20T08:40:52;8.60;91.10
69895;DHT22;57172;52.034;5.090;2023-12-20T08:43:19;8.60;91.10
69895;DHT22;57172;52.034;5.090;2023-12-20T08:45:46;8.60;91.10
69895;DHT22;57172;52.034;5.090;2023-12-20T08:48:12;8.60;90.80
69895;DHT22;57172;52.034;5.090;2023-12-20T08:50:39;8.60;91.00
69895;DHT22;57172;52.034;5.090;2023-12-20T08:53:07;8.60;90.80
69895;DHT22;57172;52.034;5.090;2023-12-20T08:55:34;8.60;91.10
69895;DHT22;57172;52.034;5.090;2023-12-20T08:58:01;8.60;91.00
69895;DHT22;57172;52.034;5.090;2023-12-20T09:00:27;8.70;91.00
69895;DHT22;57172;52.034;5.090;2023-12-20T09:02:55;8.70;90.70
69895;DHT22;57172;52.034;5.090;2023-12-20T09:05:22;8.70;90.90
69895;DHT22;57172;52.034;5.090;2023-12-20T09:07:49;8.70;91.00
69895;DHT22;57172;52.034;5.090;2023-12-20T09:10:17;8.80;90.70
69895;DHT22;57172;52.034;5.090;2023-12-20T09:12:50;8.80;90.70
69895;DHT22;57172;52.034;5.090;2023-12-20T09:15:17;8.80;90.60
69895;DHT22;57172;52.034;5.090;2023-12-20T09:17:44;8.90;90.50
69895;DHT22;57172;52.034;5.090;2023-12-20T09:20:12;8.90;90.50
69895;DHT22;57172;52.034;5.090;2023-12-20T09:22:40;9.00;90.80
69895;DHT22;57172;52.034;5.090;2023-12-20T09:25:09;9.00;90.80
69895;DHT22;57172;52.034;5.090;2023-12-20T09:27:37;9.00;90.50
69895;DHT22;57172;52.034;5.090;2023-12-20T09:30:04;9.10;90.80
69895;DHT22;57172;52.034;5.090;2023-12-20T09:32:32;9.10;90.70
69895;DHT22;57172;52.034;5.090;2023-12-20T09:34:59;9.10;90.80
69895;DHT22;57172;52.034;5.090;2023-12-20T09:37:27;9.20;90.10
69895;DHT22;57172;52.034;5.090;2023-12-20T09:39:54;9.20;89.90
69895;DHT22;57172;52.034;5.090;2023-12-20T09:42:32;9.20;89.50
69895;DHT22;57172;52.034;5.090;2023-12-20T09:45:02;9.20;89.70
69895;DHT22;57172;52.034;5.090;2023-12-20T09:47:31;9.30;89.30
69895;DHT22;57172;52.034;5.090;2023-12-20T09:49:59;9.30;89.70
69895;DHT22;57172;52.034;5.090;2023-12-20T09:52:26;9.30;89.30
69895;DHT22;57172;52.034;5.090;2023-12-20T09:54:53;9.40;90.00
69895;DHT22;57172;52.034;5.090;2023-12-20T09:57:22;9.40;89.70
69895;DHT22;57172;52.034;5.090;2023-12-20T09:59:49;9.40;89.40
69895;DHT22;57172;52.034;5.090;2023-12-20T10:02:18;9.50;89.80
69895;DHT22;57172;52.034;5.090;2023-12-20T10:04:47;9.50;89.80
69895;DHT22;57172;52.034;5.090;2023-12-20T10:07:17;9.50;90.00
69895;DHT22;57172;52.034;5.090;2023-12-20T10:09:44;9.60;90.20
69895;DHT22;57172;52.034;5.090;2023-12-20T10:12:12;9.60;90.00
69895;DHT22;57172;52.034;5.090;2023-12-20T10:14:39;9.60;89.90
69895;DHT22;57172;52.034;5.090;2023-12-20T10:17:06;9.60;89.00
69895;DHT22;57172;52.034;5.090;2023-12-20T10:19:33;9.60;89.20
69895;DHT22;57172;52.034;5.090;2023-12-20T10:22:01;9.70;89.80
69895;DHT22;57172;52.034;5.090;2023-12-20T10:24:28;9.70;89.50
69895;DHT22;57172;52.034;5.090;2023-12-20T10:27:04;9.70;89.60
69895;DHT22;57172;52.034;5.090;2023-12-20T10:29:37;9.70;89.20
69895;DHT22;57172;52.034;5.090;2023-12-20T10:32:26;9.70;88.80
69895;DHT22;57172;52.034;5.090;2023-12-20T10:34:55;9.80;89.30
69895;DHT22;57172;52.034;5.090;2023-12-20T10:37:23;9.80;88.70
69895;DHT22;57172;52.034;5.090;2023-12-20T10:39:51;9.80;89.30
69895;DHT22;57172;52.034;5.090;2023-12-20T10:42:27;9.80;89.20
69895;DHT22;57172;52.034;5.090;2023-12-20T10:44:55;9.90;89.30
69895;DHT22;57172;52.034;5.090;2023-12-20T10:47:24;9.90;89.20
69895;DHT22;57172;52.034;5.090;2023-12-20T10:49:52;9.90;88.90
69895;DHT22;57172;52.034;5.090;2023-12-20T10:52:23;9.90;89.50
69895;DHT22;57172;52.034;5.090;2023-12-20T10:54:51;9.90;89.50
69895;DHT22;57172;52.034;5.090;2023-12-20T10:57:18;9.90;89.00
69895;DHT22;57172;52.034;5.090;2023-12-20T10:59:49;9.90;88.80
69895;DHT22;57172;52.034;5.090;2023-12-20T11:02:19;10.00;88.40
69895;DHT22;57172;52.034;5.090;2023-12-20T11:04:58;10.00;89.00
69895;DHT22;57172;52.034;5.090;2023-12-20T11:07:33;10.00;88.60
69895;DHT22;57172;52.034;5.090;2023-12-20T11:10:22;10.10;88.60
69895;DHT22;57172;52.034;5.090;2023-12-20T11:13:17;10.10;88.20
69895;DHT22;57172;52.034;5.090;2023-12-20T11:15:44;10.10;88.40
69895;DHT22;57172;52.034;5.090;2023-12-20T11:18:12;10.10;88.00
69895;DHT22;57172;52.034;5.090;2023-12-20T11:20:41;10.10;87.90
69895;DHT22;57172;52.034;5.090;2023-12-20T11:23:08;10.10;88.70
69895;DHT22;57172;52.034;5.090;2023-12-20T11:25:51;10.10;88.60
69895;DHT22;57172;52.034;5.090;2023-12-20T11:28:23;10.20;88.80
69895;DHT22;57172;52.034;5.090;2023-12-20T11:30:55;10.20;87.80
69895;DHT22;57172;52.034;5.090;2023-12-20T11:33:24;10.20;88.20
69895;DHT22;57172;52.034;5.090;2023-12-20T11:35:57;10.20;88.20
69895;DHT22;57172;52.034;5.090;2023-12-20T11:38:24;10.20;88.20
69895;DHT22;57172;52.034;5.090;2023-12-20T11:40:53;10.20;88.20
69895;DHT22;57172;52.034;5.090;2023-12-20T11:46:09;10.30;88.90
69895;DHT22;57172;52.034;5.090;2023-12-20T11:48:40;10.30;88.30
69895;DHT22;57172;52.034;5.090;2023-12-20T11:51:13;10.40;89.40
69895;DHT22;57172;52.034;5.090;2023-12-20T11:53:41;10.50;89.50
69895;DHT22;57172;52.034;5.090;2023-12-20T11:56:10;10.60;90.10
69895;DHT22;57172;52.034;5.090;2023-12-20T11:58:37;10.70;89.40
69895;DHT22;57172;52.034;5.090;2023-12-20T12:01:05;10.70;88.00
69895;DHT22;57172;52.034;5.090;2023-12-20T12:03:35;10.70;87.80
69895;DHT22;57172;52.034;5.090;2023-12-20T12:06:02;10.60;87.00
69895;DHT22;57172;52.034;5.090;2023-12-20T12:08:31;10.60;87.20
69895;DHT22;57172;52.034;5.090;2023-12-20T12:10:58;10.60;87.30
69895;DHT22;57172;52.034;5.090;2023-12-20T12:13:25;10.60;87.00
69895;DHT22;57172;52.034;5.090;2023-12-20T12:15:54;10.60;87.30
69895;DHT22;57172;52.034;5.090;2023-12-20T12:18:21;10.60;87.30
69895;DHT22;57172;52.034;5.090;2023-12-20T12:20:48;10.60;87.50
69895;DHT22;57172;52.034;5.090;2023-12-20T12:23:23;10.60;87.90
69895;DHT22;57172;52.034;5.090;2023-12-20T12:25:51;10.60;87.60
69895;DHT22;57172;52.034;5.090;2023-12-20T12:28:18;10.50;87.10
69895;DHT22;57172;52.034;5.090;2023-12-20T12:30:57;10.50;87.60
69895;DHT22;57172;52.034;5.090;2023-12-20T12:33:25;10.50;88.20
69895;DHT22;57172;52.034;5.090;2023-12-20T12:35:53;10.50;87.80
69895;DHT22;57172;52.034;5.090;2023-12-20T12:38:20;10.50;87.80
69895;DHT22;57172;52.034;5.090;2023-12-20T12:40:48;10.60;88.40
69895;DHT22;57172;52.034;5.090;2023-12-20T12:43:16;10.50;87.50
69895;DHT22;57172;52.034;5.090;2023-12-20T12:45:43;10.50;87.60
69895;DHT22;57172;52.034;5.090;2023-12-20T12:48:10;10.50;87.20
69895;DHT22;57172;52.034;5.090;2023-12-20T12:50:37;10.50;87.60
69895;DHT22;57172;52.034;5.090;2023-12-20T12:53:04;10.60;87.50
69895;DHT22;57172;52.034;5.090;2023-12-20T12:55:31;10.60;87.80
69895;DHT22;57172;52.034;5.090;2023-12-20T12:57:58;10.60;88.20
69895;DHT22;57172;52.034;5.090;2023-12-20T13:00:26;10.70;88.00
69895;DHT22;57172;52.034;5.090;2023-12-20T13:02:53;10.70;87.70
69895;DHT22;57172;52.034;5.090;2023-12-20T13:05:20;10.70;87.30
69895;DHT22;57172;52.034;5.090;2023-12-20T13:07:47;10.70;87.60
69895;DHT22;57172;52.034;5.090;2023-12-20T13:10:15;10.70;87.40
69895;DHT22;57172;52.034;5.090;2023-12-20T13:12:43;10.70;87.20
69895;DHT22;57172;52.034;5.090;2023-12-20T13:15:10;10.70;87.80
69895;DHT22;57172;52.034;5.090;2023-12-20T13:17:37;10.70;86.80
69895;DHT22;57172;52.034;5.090;2023-12-20T13:20:05;10.60;86.80
69895;DHT22;57172;52.034;5.090;2023-12-20T13:22:33;10.60;86.60
69895;DHT22;57172;52.034;5.090;2023-12-20T13:25:00;10.60;86.10
69895;DHT22;57172;52.034;5.090;2023-12-20T13:27:27;10.60;86.30
69895;DHT22;57172;52.034;5.090;2023-12-20T13:29:54;10.60;86.40
69895;DHT22;57172;52.034;5.090;2023-12-20T13:32:21;10.60;87.00
69895;DHT22;57172;52.034;5.090;2023-12-20T13:34:49;10.60;86.10
69895;DHT22;57172;52.034;5.090;2023-12-20T13:37:16;10.60;86.10
69895;DHT22;57172;52.034;5.090;2023-12-20T13:39:43;10.60;85.80
69895;DHT22;57172;52.034;5.090;2023-12-20T13:42:10;10.60;86.00
69895;DHT22;57172;52.034;5.090;2023-12-20T13:44:37;10.60;86.40
69895;DHT22;57172;52.034;5.090;2023-12-20T13:47:04;10.60;85.80
69895;DHT22;57172;52.034;5.090;2023-12-20T13:49:31;10.60;85.20
69895;DHT22;57172;52.034;5.090;2023-12-20T13:51:59;10.60;85.20
69895;DHT22;57172;52.034;5.090;2023-12-20T13:54:26;10.50;85.70
69895;DHT22;57172;52.034;5.090;2023-12-20T13:56:53;10.60;86.40
69895;DHT22;57172;52.034;5.090;2023-12-20T13:59:38;10.60;85.90
69895;DHT22;57172;52.034;5.090;2023-12-20T14:02:05;10.50;86.50
69895;DHT22;57172;52.034;5.090;2023-12-20T14:04:32;10.60;87.10
69895;DHT22;57172;52.034;5.090;2023-12-20T14:07:09;10.60;87.00
69895;DHT22;57172;52.034;5.090;2023-12-20T14:09:39;10.60;86.80
69895;DHT22;57172;52.034;5.090;2023-12-20T14:12:06;10.50;85.90
69895;DHT22;57172;52.034;5.090;2023-12-20T14:14:33;10.50;86.70
69895;DHT22;57172;52.034;5.090;2023-12-20T14:17:00;10.50;85.90
69895;DHT22;57172;52.034;5.090;2023-12-20T14:19:27;10.50;86.10
69895;DHT22;57172;52.034;5.090;2023-12-20T14:21:54;10.50;85.80
69895;DHT22;57172;52.034;5.090;2023-12-20T14:24:21;10.40;86.10
69895;DHT22;57172;52.034;5.090;2023-12-20T14:26:48;10.40;86.10
69895;DHT22;57172;52.034;5.090;2023-12-20T14:29:15;10.30;86.20
69895;DHT22;57172;52.034;5.090;2023-12-20T14:31:41;10.30;86.30
69895;DHT22;57172;52.034;5.090;2023-12-20T14:34:08;10.30;86.20
69895;DHT22;57172;52.034;5.090;2023-12-20T14:36:36;10.20;86.20
69895;DHT22;57172;52.034;5.090;2023-12-20T14:39:03;10.20;86.50
69895;DHT22;57172;52.034;5.090;2023-12-20T14:41:31;10.20;86.60
69895;DHT22;57172;52.034;5.090;2023-12-20T14:43:58;10.10;86.60
69895;DHT22;57172;52.034;5.090;2023-12-20T14:46:27;10.10;87.00
69895;DHT22;57172;52.034;5.090;2023-12-20T14:48:55;10.10;87.20
69895;DHT22;57172;52.034;5.090;2023-12-20T14:51:22;10.10;87.40
69895;DHT22;57172;52.034;5.090;2023-12-20T14:53:49;10.10;87.40
69895;DHT22;57172;52.034;5.090;2023-12-20T14:56:16;10.10;87.30
69895;DHT22;57172;52.034;5.090;2023-12-20T14:58:43;10.10;87.70
69895;DHT22;57172;52.034;5.090;2023-12-20T15:01:10;10.00;87.40
69895;DHT22;57172;52.034;5.090;2023-12-20T15:03:37;10.00;87.70
69895;DHT22;57172;52.034;5.090;2023-12-20T15:06:06;10.00;87.60
69895;DHT22;57172;52.034;5.090;2023-12-20T15:08:34;10.00;87.30
69895;DHT22;57172;52.034;5.090;2023-12-20T15:11:01;10.00;87.60
69895;DHT22;57172;52.034;5.090;2023-12-20T15:13:31;10.00;87.90
69895;DHT22;57172;52.034;5.090;2023-12-20T15:15:58;10.00;88.20
69895;DHT22;57172;52.034;5.090;2023-12-20T15:18:25;9.90;87.90
69895;DHT22;57172;52.034;5.090;2023-12-20T15:20:52;9.90;88.00
69895;DHT22;57172;52.034;5.090;2023-12-20T15:23:19;9.90;87.80
69895;DHT22;57172;52.034;5.090;2023-12-20T15:25:48;9.90;88.30
69895;DHT22;57172;52.034;5.090;2023-12-20T15:28:15;9.90;88.40
69895;DHT22;57172;52.034;5.090;2023-12-20T15:30:42;9.80;88.50
69895;DHT22;57172;52.034;5.090;2023-12-20T15:33:09;9.80;88.70
69895;DHT22;57172;52.034;5.090;2023-12-20T15:35:36;9.80;88.90
69895;DHT22;57172;52.034;5.090;2023-12-20T15:38:03;9.70;89.10
69895;DHT22;57172;52.034;5.090;2023-12-20T15:40:31;9.70;88.90
69895;DHT22;57172;52.034;5.090;2023-12-20T15:42:58;9.60;89.30
69895;DHT22;57172;52.034;5.090;2023-12-20T15:45:26;9.60;89.60
69895;DHT22;57172;52.034;5.090;2023-12-20T15:47:53;9.50;89.70
69895;DHT22;57172;52.034;5.090;2023-12-20T15:50:20;9.50;89.90